createdAt,value
2022-11-03T00:00:00.159Z,0.6
2022-11-03T00:01:00.151Z,0.6
2022-11-03T00:02:00.332Z,0.6
2022-11-03T00:03:00.308Z,1.5
2022-11-03T00:04:00.155Z,1.5
2022-11-03T00:05:00.151Z,1.5
2022-11-03T00:06:00.189Z,1.5
2022-11-03T00:07:00.163Z,1.5
2022-11-03T00:08:01.089Z,1.5
2022-11-03T00:09:01.283Z,1.5
2022-11-03T00:10:00.162Z,1.5
2022-11-03T00:11:00.853Z,1.5
2022-11-03T00:12:00.541Z,1.5
2022-11-03T00:13:00.152Z,1.5
2022-11-03T00:14:00.847Z,1.5
2022-11-03T00:15:00.165Z,1.5
2022-11-03T00:16:00.196Z,1.5
2022-11-03T00:17:00.166Z,1.5
2022-11-03T00:18:00.172Z,1.5
2022-11-03T00:19:00.190Z,1.5
2022-11-03T00:20:00.158Z,1.5
2022-11-03T00:21:00.137Z,1.5
2022-11-03T00:22:00.159Z,1.5
2022-11-03T00:23:00.157Z,2.6
2022-11-03T00:24:00.646Z,2.6
2022-11-03T00:25:00.723Z,2.6
2022-11-03T00:26:09.164Z,2.6
2022-11-03T00:27:00.152Z,2.6
2022-11-03T00:28:00.216Z,2.6
2022-11-03T00:29:01.582Z,2.6
2022-11-03T00:30:00.169Z,2.6
2022-11-03T00:31:01.345Z,2.6
2022-11-03T00:32:00.183Z,2.6
2022-11-03T00:33:00.155Z,2.6
2022-11-03T00:34:00.765Z,2.6
2022-11-03T00:35:00.155Z,2.6
2022-11-03T00:36:00.469Z,2.6
2022-11-03T00:37:00.153Z,2.6
2022-11-03T00:38:00.156Z,2.6
2022-11-03T00:39:00.216Z,2.6
2022-11-03T00:40:00.150Z,2.6
2022-11-03T00:41:00.837Z,2.6
2022-11-03T00:42:00.151Z,2.6
2022-11-03T00:43:00.156Z,0.7
2022-11-03T00:44:00.159Z,0.7
2022-11-03T00:45:00.156Z,0.7
2022-11-03T00:46:00.638Z,0.7
2022-11-03T00:47:00.148Z,0.7
2022-11-03T00:48:00.218Z,0.7
2022-11-03T00:49:00.317Z,0.7
2022-11-03T00:50:00.162Z,0.7
2022-11-03T00:51:05.103Z,0.7
2022-11-03T00:52:00.157Z,0.7
2022-11-03T00:53:00.159Z,0.7
2022-11-03T00:54:00.782Z,0.7
2022-11-03T00:55:00.172Z,0.7
2022-11-03T00:56:00.379Z,0.7
2022-11-03T00:57:00.153Z,0.7
2022-11-03T00:58:00.170Z,0.7
2022-11-03T00:59:00.931Z,0.7
2022-11-03T01:00:00.163Z,0.7
2022-11-03T01:01:01.491Z,0.7
2022-11-03T01:02:00.265Z,0.7
2022-11-03T01:03:00.168Z,0.6
2022-11-03T01:04:00.175Z,0.6
2022-11-03T01:05:00.163Z,0.6
2022-11-03T01:06:00.523Z,0.6
2022-11-03T01:07:00.570Z,0.6
2022-11-03T01:09:00.159Z,0.6
2022-11-03T01:10:00.173Z,0.6
2022-11-03T01:11:04.111Z,0.6
2022-11-03T01:12:00.142Z,0.6
2022-11-03T01:13:00.155Z,0.6
2022-11-03T01:14:00.542Z,0.6
2022-11-03T01:15:00.161Z,0.6
2022-11-03T01:16:00.154Z,0.6
2022-11-03T01:17:00.747Z,0.6
2022-11-03T01:18:00.151Z,0.6
2022-11-03T01:19:00.161Z,0.6
2022-11-03T01:20:00.170Z,0.6
2022-11-03T01:21:00.162Z,0.6
2022-11-03T01:22:00.162Z,0.6
2022-11-03T01:23:00.150Z,0.7
2022-11-03T01:24:00.416Z,0.7
2022-11-03T01:25:00.156Z,0.7
2022-11-03T01:26:03.884Z,0.7
2022-11-03T01:27:00.220Z,0.7
2022-11-03T01:28:01.486Z,0.7
2022-11-03T01:29:00.175Z,0.7
2022-11-03T01:30:00.187Z,0.7
2022-11-03T01:31:02.551Z,0.7
2022-11-03T01:32:00.151Z,0.7
2022-11-03T01:33:00.157Z,0.7
2022-11-03T01:34:00.359Z,0.7
2022-11-03T01:35:00.164Z,0.7
2022-11-03T01:36:00.508Z,0.7
2022-11-03T01:37:00.461Z,0.7
2022-11-03T01:38:00.144Z,0.7
2022-11-03T01:39:00.155Z,0.7
2022-11-03T01:40:00.166Z,0.7
2022-11-03T01:41:00.855Z,0.7
2022-11-03T01:42:00.253Z,0.7
2022-11-03T01:43:10.087Z,0.6
2022-11-03T01:44:07.689Z,0.6
2022-11-03T01:45:00.151Z,0.6
2022-11-03T01:46:02.866Z,0.6
2022-11-03T01:47:00.135Z,0.6
2022-11-03T01:48:00.326Z,0.6
2022-11-03T01:49:03.750Z,0.6
2022-11-03T01:50:03.715Z,0.6
2022-11-03T01:51:01.807Z,0.6
2022-11-03T01:52:10.089Z,0.6
2022-11-03T01:53:00.318Z,0.6
2022-11-03T01:54:03.444Z,0.6
2022-11-03T01:55:02.682Z,0.6
2022-11-03T01:56:01.693Z,0.6
2022-11-03T01:57:03.413Z,0.6
2022-11-03T01:58:04.799Z,0.6
2022-11-03T01:59:00.649Z,0.6
2022-11-03T02:00:00.921Z,0.6
2022-11-03T02:01:00.401Z,0.6
2022-11-03T02:02:00.484Z,0.6
2022-11-03T02:03:00.460Z,0.6
2022-11-03T02:04:07.821Z,0.6
2022-11-03T02:05:01.335Z,0.6
2022-11-03T02:06:01.367Z,0.6
2022-11-03T02:07:10.089Z,0.6
2022-11-03T02:08:04.652Z,0.6
2022-11-03T02:09:02.073Z,0.6
2022-11-03T02:10:00.312Z,0.6
2022-11-03T02:11:00.335Z,0.6
2022-11-03T02:12:00.723Z,0.6
2022-11-03T02:13:01.684Z,0.6
2022-11-03T02:14:00.283Z,0.6
2022-11-03T02:15:03.065Z,0.6
2022-11-03T02:16:00.564Z,0.6
2022-11-03T02:17:01.791Z,0.6
2022-11-03T02:18:00.874Z,0.6
2022-11-03T02:19:01.003Z,0.6
2022-11-03T02:20:02.586Z,0.6
2022-11-03T02:21:03.436Z,0.6
2022-11-03T02:22:10.096Z,0.6
2022-11-03T02:23:00.148Z,0.8
2022-11-03T02:24:05.827Z,0.8
2022-11-03T02:25:10.129Z,0.8
2022-11-03T02:26:00.487Z,0.8
2022-11-03T02:27:00.214Z,0.8
2022-11-03T02:28:01.030Z,0.8
2022-11-03T02:29:00.334Z,0.8
2022-11-03T02:30:00.843Z,0.8
2022-11-03T02:31:10.119Z,0.8
2022-11-03T02:32:06.421Z,0.8
2022-11-03T02:33:10.091Z,0.8
2022-11-03T02:34:01.181Z,0.8
2022-11-03T02:35:04.656Z,0.8
2022-11-03T02:36:01.191Z,0.8
2022-11-03T02:37:04.242Z,0.8
2022-11-03T02:38:02.281Z,0.8
2022-11-03T02:39:05.047Z,0.8
2022-11-03T02:40:03.913Z,0.8
2022-11-03T02:41:02.245Z,0.8
2022-11-03T02:42:01.569Z,0.8
2022-11-03T02:43:01.344Z,0.7
2022-11-03T02:44:00.781Z,0.7
2022-11-03T02:45:02.459Z,0.7
2022-11-03T02:46:02.751Z,0.7
2022-11-03T02:47:02.608Z,0.7
2022-11-03T02:48:01.849Z,0.7
2022-11-03T02:49:00.169Z,0.7
2022-11-03T02:50:03.425Z,0.7
2022-11-03T02:51:01.868Z,0.7
2022-11-03T02:52:00.947Z,0.7
2022-11-03T02:53:00.700Z,0.7
2022-11-03T02:54:00.140Z,0.7
2022-11-03T02:55:08.935Z,0.7
2022-11-03T02:56:00.136Z,0.7
2022-11-03T02:57:05.084Z,0.7
2022-11-03T02:58:06.050Z,0.7
2022-11-03T02:59:01.454Z,0.7
2022-11-03T03:00:03.257Z,0.7
2022-11-03T03:01:00.269Z,0.7
2022-11-03T03:02:05.656Z,0.6
2022-11-03T03:03:01.179Z,0.6
2022-11-03T03:04:02.664Z,0.6
2022-11-03T03:05:02.678Z,0.6
2022-11-03T03:06:03.238Z,0.6
2022-11-03T03:07:01.641Z,0.6
2022-11-03T03:08:02.864Z,0.6
2022-11-03T03:09:02.293Z,0.6
2022-11-03T03:10:09.916Z,0.6
2022-11-03T03:11:02.037Z,0.6
2022-11-03T03:12:01.816Z,0.6
2022-11-03T03:13:01.163Z,0.6
2022-11-03T03:14:00.193Z,0.6
2022-11-03T03:15:01.310Z,0.6
2022-11-03T03:16:05.883Z,0.6
2022-11-03T03:17:03.190Z,0.6
2022-11-03T03:18:06.463Z,0.6
2022-11-03T03:19:03.030Z,0.6
2022-11-03T03:20:03.279Z,0.6
2022-11-03T03:21:03.334Z,0.6
2022-11-03T03:22:02.617Z,1.7
2022-11-03T03:23:11.312Z,1.7
2022-11-03T03:24:02.087Z,1.7
2022-11-03T03:25:05.095Z,1.7
2022-11-03T03:26:09.678Z,1.7
2022-11-03T03:27:02.217Z,1.7
2022-11-03T03:28:03.290Z,1.7
2022-11-03T03:29:04.168Z,1.7
2022-11-03T03:30:02.988Z,1.7
2022-11-03T03:31:01.878Z,1.7
2022-11-03T03:32:02.908Z,1.7
2022-11-03T03:33:01.866Z,1.7
2022-11-03T03:34:10.324Z,1.7
2022-11-03T03:35:01.276Z,1.7
2022-11-03T03:36:02.336Z,1.7
2022-11-03T03:37:00.587Z,1.7
2022-11-03T03:38:02.365Z,1.7
2022-11-03T03:39:02.391Z,1.7
2022-11-03T03:40:02.317Z,1.7
2022-11-03T03:41:00.198Z,1.7
2022-11-03T03:42:01.397Z,0.5
2022-11-03T03:43:01.735Z,0.5
2022-11-03T03:44:03.227Z,0.5
2022-11-03T03:45:00.180Z,0.5
2022-11-03T03:46:03.520Z,0.5
2022-11-03T03:47:03.002Z,0.5
2022-11-03T03:48:00.278Z,0.5
2022-11-03T03:49:00.188Z,0.5
2022-11-03T03:50:00.804Z,0.5
2022-11-03T03:51:00.811Z,0.5
2022-11-03T03:52:00.573Z,0.5
2022-11-03T03:53:01.271Z,0.5
2022-11-03T03:54:00.155Z,0.5
2022-11-03T03:55:00.575Z,0.5
2022-11-03T03:56:00.167Z,0.5
2022-11-03T03:57:01.776Z,0.5
2022-11-03T03:58:00.671Z,0.5
2022-11-03T03:59:00.249Z,0.5
2022-11-03T04:00:00.161Z,0.5
2022-11-03T04:01:00.234Z,0.5
2022-11-03T04:02:00.475Z,0.6
2022-11-03T04:03:00.156Z,0.6
2022-11-03T04:04:00.379Z,0.6
2022-11-03T04:05:00.147Z,0.6
2022-11-03T04:06:00.173Z,0.6
2022-11-03T04:07:00.154Z,0.6
2022-11-03T04:08:00.168Z,0.6
2022-11-03T04:09:00.149Z,0.6
2022-11-03T04:10:00.157Z,0.6
2022-11-03T04:11:00.183Z,0.6
2022-11-03T04:12:00.147Z,0.6
2022-11-03T04:13:00.163Z,0.6
2022-11-03T04:14:00.142Z,0.6
2022-11-03T04:15:00.143Z,0.6
2022-11-03T04:16:00.169Z,0.6
2022-11-03T04:17:00.143Z,0.6
2022-11-03T04:18:00.150Z,0.6
2022-11-03T04:19:00.223Z,0.6
2022-11-03T04:20:00.151Z,0.6
2022-11-03T04:21:00.177Z,0.6
2022-11-03T04:22:00.195Z,0.6
2022-11-03T04:23:00.152Z,0.6
2022-11-03T04:24:00.153Z,0.6
2022-11-03T04:25:00.148Z,0.6
2022-11-03T04:26:00.158Z,0.6
2022-11-03T04:27:04.369Z,0.6
2022-11-03T04:28:00.738Z,0.6
2022-11-03T04:29:00.515Z,0.6
2022-11-03T04:30:10.096Z,0.6
2022-11-03T04:31:00.159Z,0.6
2022-11-03T04:32:00.358Z,0.6
2022-11-03T04:33:00.185Z,0.6
2022-11-03T04:34:02.497Z,0.6
2022-11-03T04:35:00.175Z,0.6
2022-11-03T04:36:00.228Z,0.6
2022-11-03T04:37:00.313Z,0.6
2022-11-03T04:38:02.305Z,0.6
2022-11-03T04:39:00.154Z,0.6
2022-11-03T04:40:00.543Z,0.6
2022-11-03T04:41:00.166Z,0.6
2022-11-03T04:42:00.155Z,0.6
2022-11-03T04:43:00.324Z,0.6
2022-11-03T04:44:00.211Z,0.6
2022-11-03T04:45:01.125Z,0.6
2022-11-03T04:46:00.859Z,0.6
2022-11-03T04:47:00.322Z,0.6
2022-11-03T04:48:01.408Z,0.6
2022-11-03T04:49:00.722Z,0.6
2022-11-03T04:50:00.218Z,0.6
2022-11-03T04:51:01.625Z,0.6
2022-11-03T04:52:00.147Z,0.6
2022-11-03T04:53:00.208Z,0.6
2022-11-03T04:54:02.702Z,0.6
2022-11-03T04:55:00.185Z,0.6
2022-11-03T04:56:05.948Z,0.6
2022-11-03T04:57:04.439Z,0.6
2022-11-03T04:58:03.776Z,0.6
2022-11-03T04:59:00.149Z,0.6
2022-11-03T05:00:00.283Z,0.6
2022-11-03T05:01:01.017Z,0.6
2022-11-03T05:02:00.512Z,0.6
2022-11-03T05:03:00.165Z,0.6
2022-11-03T05:04:00.157Z,0.6
2022-11-03T05:05:00.280Z,0.6
2022-11-03T05:06:08.005Z,0.6
2022-11-03T05:07:00.153Z,0.6
2022-11-03T05:08:00.166Z,0.6
2022-11-03T05:09:04.562Z,0.6
2022-11-03T05:10:00.720Z,0.6
2022-11-03T05:11:00.217Z,0.6
2022-11-03T05:12:00.879Z,0.6
2022-11-03T05:13:00.438Z,0.6
2022-11-03T05:14:01.309Z,0.6
2022-11-03T05:15:06.505Z,0.6
2022-11-03T05:16:02.182Z,0.6
2022-11-03T05:17:01.010Z,0.6
2022-11-03T05:18:03.035Z,0.6
2022-11-03T05:19:00.161Z,0.6
2022-11-03T05:20:01.035Z,0.6
2022-11-03T05:21:01.788Z,0.6
2022-11-03T05:22:01.375Z,0.5
2022-11-03T05:23:00.234Z,0.5
2022-11-03T05:24:01.185Z,0.5
2022-11-03T05:25:01.812Z,0.5
2022-11-03T05:26:00.284Z,0.5
2022-11-03T05:27:00.163Z,0.5
2022-11-03T05:28:00.189Z,0.5
2022-11-03T05:29:02.537Z,0.5
2022-11-03T05:30:01.168Z,0.5
2022-11-03T05:31:00.871Z,0.5
2022-11-03T05:32:00.289Z,0.5
2022-11-03T05:33:00.156Z,0.5
2022-11-03T05:34:01.961Z,0.5
2022-11-03T05:35:00.259Z,0.5
2022-11-03T05:36:02.031Z,0.5
2022-11-03T05:37:10.089Z,0.5
2022-11-03T05:38:01.620Z,0.5
2022-11-03T05:39:10.088Z,0.5
2022-11-03T05:40:00.146Z,0.5
2022-11-03T05:41:00.292Z,0.5
2022-11-03T05:42:01.501Z,0.6
2022-11-03T05:43:01.051Z,0.6
2022-11-03T05:44:01.843Z,0.6
2022-11-03T05:45:01.812Z,0.6
2022-11-03T05:46:02.056Z,0.6
2022-11-03T05:47:03.272Z,0.6
2022-11-03T05:48:02.058Z,0.6
2022-11-03T05:49:01.325Z,0.6
2022-11-03T05:50:05.957Z,0.6
2022-11-03T05:51:01.686Z,0.6
2022-11-03T05:52:00.172Z,0.6
2022-11-03T05:53:04.212Z,0.6
2022-11-03T05:54:02.131Z,0.6
2022-11-03T05:55:01.041Z,0.6
2022-11-03T05:56:02.544Z,0.6
2022-11-03T05:57:00.215Z,0.6
2022-11-03T05:58:03.973Z,0.6
2022-11-03T05:59:00.680Z,0.6
2022-11-03T06:00:00.229Z,0.6
2022-11-03T06:01:02.765Z,0.6
2022-11-03T06:02:00.635Z,1.0
2022-11-03T06:03:00.383Z,1.0
2022-11-03T06:04:03.132Z,1.0
2022-11-03T06:05:00.408Z,1.0
2022-11-03T06:06:00.833Z,1.0
2022-11-03T06:07:02.706Z,1.0
2022-11-03T06:08:01.805Z,1.0
2022-11-03T06:09:02.040Z,1.0
2022-11-03T06:10:00.181Z,1.0
2022-11-03T06:11:01.290Z,1.0
2022-11-03T06:12:01.271Z,1.0
2022-11-03T06:13:01.490Z,1.0
2022-11-03T06:14:00.310Z,1.0
2022-11-03T06:15:00.152Z,1.0
2022-11-03T06:16:01.550Z,1.0
2022-11-03T06:17:03.061Z,1.0
2022-11-03T06:18:09.727Z,1.0
2022-11-03T06:19:02.526Z,1.0
2022-11-03T06:20:00.287Z,1.0
2022-11-03T06:21:04.014Z,1.0
2022-11-03T06:22:04.301Z,0.6
2022-11-03T06:23:00.184Z,0.6
2022-11-03T06:24:00.193Z,0.6
2022-11-03T06:25:08.626Z,0.6
2022-11-03T06:26:01.499Z,0.6
2022-11-03T06:27:00.174Z,0.6
2022-11-03T06:28:02.708Z,0.6
2022-11-03T06:29:00.175Z,0.6
2022-11-03T06:30:01.658Z,0.6
2022-11-03T06:31:00.170Z,0.6
2022-11-03T06:32:00.707Z,0.6
2022-11-03T06:33:06.135Z,0.6
2022-11-03T06:34:00.571Z,0.6
2022-11-03T06:35:00.158Z,0.6
2022-11-03T06:36:04.934Z,0.6
2022-11-03T06:37:06.448Z,0.6
2022-11-03T06:38:00.394Z,0.6
2022-11-03T06:39:01.341Z,0.6
2022-11-03T06:40:10.112Z,0.6
2022-11-03T06:41:00.184Z,0.6
2022-11-03T06:42:08.213Z,0.7
2022-11-03T06:43:04.826Z,0.7
2022-11-03T06:44:01.254Z,0.7
2022-11-03T06:45:00.533Z,0.7
2022-11-03T06:46:04.489Z,0.7
2022-11-03T06:47:00.846Z,0.7
2022-11-03T06:48:01.523Z,0.7
2022-11-03T06:49:00.590Z,0.7
2022-11-03T06:50:00.589Z,0.7
2022-11-03T06:51:00.214Z,0.7
2022-11-03T06:52:04.965Z,0.7
2022-11-03T06:53:01.894Z,0.7
2022-11-03T06:54:00.369Z,0.7
2022-11-03T06:55:10.854Z,0.7
2022-11-03T06:56:00.201Z,0.7
2022-11-03T06:57:00.341Z,0.7
2022-11-03T06:58:06.460Z,0.7
2022-11-03T06:59:00.155Z,0.7
2022-11-03T07:00:20.338Z,0.7
2022-11-03T07:01:03.531Z,0.7
2022-11-03T07:02:00.315Z,0.6
2022-11-03T07:03:04.636Z,0.6
2022-11-03T07:04:01.579Z,0.6
2022-11-03T07:05:00.151Z,0.6
2022-11-03T07:06:10.093Z,0.6
2022-11-03T07:07:01.695Z,0.6
2022-11-03T07:08:03.092Z,0.6
2022-11-03T07:09:01.482Z,0.6
2022-11-03T07:10:00.174Z,0.6
2022-11-03T07:11:09.908Z,0.6
2022-11-03T07:12:00.150Z,0.6
2022-11-03T07:13:07.051Z,0.6
2022-11-03T07:14:10.090Z,0.6
2022-11-03T07:15:00.260Z,0.6
2022-11-03T07:16:00.529Z,0.6
2022-11-03T07:17:02.250Z,0.6
2022-11-03T07:18:01.512Z,0.6
2022-11-03T07:19:02.078Z,0.6
2022-11-03T07:20:00.183Z,0.6
2022-11-03T07:21:04.066Z,0.6
2022-11-03T07:22:02.347Z,0.7
2022-11-03T07:23:00.596Z,0.7
2022-11-03T07:24:01.781Z,0.7
2022-11-03T07:25:02.428Z,0.7
2022-11-03T07:26:00.351Z,0.7
2022-11-03T07:27:10.105Z,0.7
2022-11-03T07:28:01.154Z,0.7
2022-11-03T07:29:00.767Z,0.7
2022-11-03T07:30:09.568Z,0.7
2022-11-03T07:31:01.123Z,0.7
2022-11-03T07:32:00.273Z,0.7
2022-11-03T07:33:01.462Z,0.7
2022-11-03T07:34:00.147Z,0.7
2022-11-03T07:35:08.775Z,0.7
2022-11-03T07:36:14.821Z,0.7
2022-11-03T07:37:00.266Z,0.7
2022-11-03T07:38:02.627Z,0.7
2022-11-03T07:39:00.530Z,0.7
2022-11-03T07:40:00.275Z,0.7
2022-11-03T07:41:00.259Z,0.7
2022-11-03T07:42:02.241Z,0.6
2022-11-03T07:43:07.439Z,0.6
2022-11-03T07:44:00.677Z,0.6
2022-11-03T07:45:00.158Z,0.6
2022-11-03T07:46:01.342Z,0.6
2022-11-03T07:47:00.159Z,0.6
2022-11-03T07:48:06.591Z,0.6
2022-11-03T07:49:01.130Z,0.6
2022-11-03T07:50:00.557Z,0.6
2022-11-03T07:51:04.873Z,0.6
2022-11-03T07:52:00.169Z,0.6
2022-11-03T07:53:00.216Z,0.6
2022-11-03T07:54:00.130Z,0.6
2022-11-03T07:55:00.213Z,0.6
2022-11-03T07:56:01.012Z,0.6
2022-11-03T07:57:03.862Z,0.6
2022-11-03T07:58:00.156Z,0.6
2022-11-03T07:59:03.614Z,0.6
2022-11-03T08:00:05.362Z,0.6
2022-11-03T08:01:00.904Z,0.6
2022-11-03T08:02:00.651Z,0.6
2022-11-03T08:03:00.435Z,0.6
2022-11-03T08:04:03.182Z,0.6
2022-11-03T08:05:00.497Z,0.6
2022-11-03T08:06:02.681Z,0.6
2022-11-03T08:07:00.200Z,0.6
2022-11-03T08:08:00.165Z,0.6
2022-11-03T08:09:00.159Z,0.6
2022-11-03T08:10:00.152Z,0.6
2022-11-03T08:11:00.222Z,0.6
2022-11-03T08:12:00.168Z,0.6
2022-11-03T08:13:00.158Z,0.6
2022-11-03T08:14:00.157Z,0.6
2022-11-03T08:15:00.157Z,0.6
2022-11-03T08:16:00.159Z,0.6
2022-11-03T08:17:00.163Z,0.6
2022-11-03T08:18:00.158Z,0.6
2022-11-03T08:19:00.158Z,0.6
2022-11-03T08:20:00.176Z,0.6
2022-11-03T08:21:00.153Z,0.6
2022-11-03T08:22:00.169Z,1.2
2022-11-03T08:23:20.064Z,1.2
2022-11-03T08:24:00.290Z,1.2
2022-11-03T08:25:00.174Z,1.2
2022-11-03T08:26:00.192Z,1.2
2022-11-03T08:27:00.182Z,1.2
2022-11-03T08:28:00.153Z,1.2
2022-11-03T08:29:00.168Z,1.2
2022-11-03T08:30:00.167Z,1.2
2022-11-03T08:31:02.154Z,1.2
2022-11-03T08:32:00.154Z,1.2
2022-11-03T08:33:00.163Z,1.2
2022-11-03T08:34:00.190Z,1.2
2022-11-03T08:35:00.146Z,1.2
2022-11-03T08:36:01.059Z,1.2
2022-11-03T08:37:00.155Z,1.2
2022-11-03T08:38:00.179Z,1.2
2022-11-03T08:39:00.192Z,1.2
2022-11-03T08:40:00.164Z,1.2
2022-11-03T08:41:00.161Z,0.8
2022-11-03T08:42:00.317Z,0.8
2022-11-03T08:46:08.154Z,0.8
2022-11-03T08:47:00.162Z,0.8
2022-11-03T08:48:00.168Z,0.8
2022-11-03T08:49:00.173Z,0.8
2022-11-03T08:51:00.161Z,0.8
2022-11-03T08:52:00.163Z,0.8
2022-11-03T08:53:00.160Z,0.8
2022-11-03T08:54:00.169Z,0.8
2022-11-03T08:55:00.304Z,0.8
2022-11-03T08:56:00.171Z,0.8
2022-11-03T08:57:00.160Z,0.8
2022-11-03T08:58:00.159Z,0.8
2022-11-03T08:59:00.164Z,0.8
2022-11-03T09:00:00.175Z,0.8
2022-11-03T09:01:00.154Z,0.8
2022-11-03T09:02:00.251Z,0.8
2022-11-03T09:03:00.149Z,0.8
2022-11-03T09:04:00.283Z,0.8
2022-11-03T09:05:00.176Z,0.8
2022-11-03T09:06:00.154Z,0.8
2022-11-03T09:07:00.157Z,0.8
2022-11-03T09:10:26.614Z,0.8
2022-11-03T09:11:00.149Z,0.8
2022-11-03T09:12:00.154Z,0.8
2022-11-03T09:13:00.213Z,0.8
2022-11-03T09:14:00.151Z,0.8
2022-11-03T09:15:00.165Z,0.8
2022-11-03T09:16:00.165Z,0.8
2022-11-03T09:17:00.241Z,0.8
2022-11-03T09:18:00.258Z,0.8
2022-11-03T09:19:00.159Z,0.8
2022-11-03T09:20:00.239Z,0.8
2022-11-03T09:21:00.156Z,0.7
2022-11-03T09:22:00.238Z,0.7
2022-11-03T09:23:00.155Z,0.7
2022-11-03T09:24:00.238Z,0.7
2022-11-03T09:25:00.230Z,0.7
2022-11-03T09:26:00.158Z,0.7
2022-11-03T09:27:02.304Z,0.7
2022-11-03T09:28:00.151Z,0.7
2022-11-03T09:29:00.173Z,0.7
2022-11-03T09:30:12.836Z,0.7
2022-11-03T09:31:00.153Z,0.7
2022-11-03T09:32:00.431Z,0.7
2022-11-03T09:33:00.161Z,0.7
2022-11-03T09:34:00.154Z,0.7
2022-11-03T09:35:00.154Z,0.7
2022-11-03T09:36:00.196Z,0.7
2022-11-03T09:37:00.157Z,0.7
2022-11-03T09:38:00.171Z,0.7
2022-11-03T09:39:00.174Z,0.7
2022-11-03T09:40:00.165Z,0.7
2022-11-03T09:41:00.974Z,0.5
2022-11-03T09:42:00.209Z,0.5
2022-11-03T09:43:00.275Z,0.5
2022-11-03T09:44:00.320Z,0.5
2022-11-03T09:45:00.706Z,0.5
2022-11-03T09:46:00.170Z,0.5
2022-11-03T09:47:00.634Z,0.5
2022-11-03T09:48:00.710Z,0.5
2022-11-03T09:49:01.307Z,0.5
2022-11-03T09:50:01.017Z,0.5
2022-11-03T09:51:00.184Z,0.5
2022-11-03T09:52:01.208Z,0.5
2022-11-03T09:53:00.171Z,0.5
2022-11-03T09:54:02.431Z,0.5
2022-11-03T09:55:00.186Z,0.5
2022-11-03T09:56:00.148Z,0.5
2022-11-03T09:57:08.531Z,0.5
2022-11-03T09:58:01.163Z,0.5
2022-11-03T09:59:00.173Z,0.5
2022-11-03T10:00:00.167Z,0.5
2022-11-03T10:01:00.564Z,0.5
2022-11-03T10:02:00.332Z,0.5
2022-11-03T10:03:00.955Z,0.5
2022-11-03T10:04:00.177Z,0.5
2022-11-03T10:05:00.721Z,0.5
2022-11-03T10:06:00.156Z,0.5
2022-11-03T10:07:00.167Z,0.5
2022-11-03T10:08:01.936Z,0.5
2022-11-03T10:09:00.166Z,0.5
2022-11-03T10:10:00.188Z,0.5
2022-11-03T10:11:00.904Z,0.5
2022-11-03T10:12:00.190Z,0.5
2022-11-03T10:13:00.741Z,0.5
2022-11-03T10:14:00.498Z,0.5
2022-11-03T10:15:00.271Z,0.5
2022-11-03T10:16:02.145Z,0.5
2022-11-03T10:17:00.443Z,0.5
2022-11-03T10:18:00.695Z,0.5
2022-11-03T10:19:00.190Z,0.5
2022-11-03T10:20:00.802Z,0.5
2022-11-03T10:21:02.731Z,0.5
2022-11-03T10:22:00.170Z,0.5
2022-11-03T10:23:00.155Z,0.5
2022-11-03T10:24:00.196Z,0.5
2022-11-03T10:25:10.102Z,0.5
2022-11-03T10:26:08.030Z,0.5
2022-11-03T10:27:00.173Z,0.5
2022-11-03T10:28:14.157Z,0.5
2022-11-03T10:29:01.115Z,0.5
2022-11-03T10:30:04.743Z,0.5
2022-11-03T10:31:13.191Z,0.5
2022-11-03T10:32:00.167Z,0.5
2022-11-03T10:33:00.190Z,0.5
2022-11-03T10:34:00.182Z,0.5
2022-11-03T10:35:00.441Z,0.5
2022-11-03T10:36:01.506Z,0.5
2022-11-03T10:37:10.094Z,0.5
2022-11-03T10:38:10.090Z,0.5
2022-11-03T10:39:10.097Z,0.5
2022-11-03T10:40:00.164Z,0.5
2022-11-03T10:41:08.788Z,0.5
2022-11-03T10:42:00.161Z,0.5
2022-11-03T10:43:00.194Z,0.5
2022-11-03T10:44:00.196Z,0.5
2022-11-03T10:45:09.805Z,0.5
2022-11-03T10:46:23.499Z,0.5
2022-11-03T10:47:01.515Z,0.5
2022-11-03T10:48:03.474Z,0.5
2022-11-03T10:49:10.118Z,0.5
2022-11-03T10:50:08.766Z,0.5
2022-11-03T10:51:00.151Z,0.5
2022-11-03T10:52:10.099Z,0.5
2022-11-03T10:53:00.197Z,0.5
2022-11-03T10:54:01.318Z,0.5
2022-11-03T10:55:00.159Z,0.5
2022-11-03T10:56:00.290Z,0.5
2022-11-03T10:57:00.314Z,0.5
2022-11-03T10:58:00.171Z,0.5
2022-11-03T10:59:00.603Z,0.5
2022-11-03T11:00:00.271Z,0.5
2022-11-03T11:01:00.249Z,0.6
2022-11-03T11:02:00.629Z,0.6
2022-11-03T11:03:00.340Z,0.6
2022-11-03T11:04:00.246Z,0.6
2022-11-03T11:05:01.040Z,0.6
2022-11-03T11:06:00.170Z,0.6
2022-11-03T11:07:00.165Z,0.6
2022-11-03T11:08:00.287Z,0.6
2022-11-03T11:09:00.781Z,0.6
2022-11-03T11:10:05.112Z,0.6
2022-11-03T11:11:04.665Z,0.6
2022-11-03T11:12:01.271Z,0.6
2022-11-03T11:13:01.051Z,0.6
2022-11-03T11:14:10.087Z,0.6
2022-11-03T11:15:00.992Z,0.6
2022-11-03T11:16:00.943Z,0.6
2022-11-03T11:17:00.846Z,0.6
2022-11-03T11:18:00.175Z,0.6
2022-11-03T11:19:00.572Z,0.6
2022-11-03T11:20:10.112Z,0.6
2022-11-03T11:21:00.871Z,0.5
2022-11-03T11:22:01.248Z,0.5
2022-11-03T11:23:10.481Z,0.5
2022-11-03T11:24:00.223Z,0.5
2022-11-03T11:25:00.576Z,0.5
2022-11-03T11:26:10.275Z,0.5
2022-11-03T11:27:00.174Z,0.5
2022-11-03T11:28:09.561Z,0.5
2022-11-03T11:29:10.158Z,0.5
2022-11-03T11:30:01.017Z,0.5
2022-11-03T11:31:00.189Z,0.5
2022-11-03T11:32:10.093Z,0.5
2022-11-03T11:33:10.261Z,0.5
2022-11-03T11:34:10.122Z,0.5
2022-11-03T11:35:00.164Z,0.5
2022-11-03T11:36:00.136Z,0.5
2022-11-03T11:37:00.155Z,0.5
2022-11-03T11:38:10.094Z,0.5
2022-11-03T11:39:00.607Z,0.5
2022-11-03T11:40:00.246Z,0.5
2022-11-03T11:41:00.174Z,0.4
2022-11-03T11:42:04.010Z,0.4
2022-11-03T11:43:00.136Z,0.4
2022-11-03T11:44:10.089Z,0.4
2022-11-03T11:45:00.598Z,0.4
2022-11-03T11:46:10.177Z,0.4
2022-11-03T11:47:00.166Z,0.4
2022-11-03T11:48:13.532Z,0.4
2022-11-03T11:49:01.154Z,0.4
2022-11-03T11:50:07.630Z,0.4
2022-11-03T11:51:02.257Z,0.4
2022-11-03T11:52:00.205Z,0.4
2022-11-03T11:53:02.623Z,0.4
2022-11-03T11:54:17.609Z,0.4
2022-11-03T11:55:00.168Z,0.4
2022-11-03T11:56:01.037Z,0.4
2022-11-03T11:57:00.158Z,0.4
2022-11-03T11:58:01.845Z,0.4
2022-11-03T11:59:00.185Z,0.4
2022-11-03T12:00:00.167Z,0.4
2022-11-03T12:01:01.373Z,0.4
2022-11-03T12:02:00.781Z,0.4
2022-11-03T12:03:01.264Z,0.4
2022-11-03T12:04:05.828Z,0.4
2022-11-03T12:05:00.160Z,0.4
2022-11-03T12:06:00.166Z,0.4
2022-11-03T12:07:00.177Z,0.4
2022-11-03T12:08:00.239Z,0.4
2022-11-03T12:09:03.908Z,0.4
2022-11-03T12:10:07.941Z,0.4
2022-11-03T12:11:02.140Z,0.4
2022-11-03T12:12:04.884Z,0.4
2022-11-03T12:13:00.239Z,0.4
2022-11-03T12:14:00.189Z,0.4
2022-11-03T12:15:00.163Z,0.4
2022-11-03T12:16:00.157Z,0.4
2022-11-03T12:17:10.092Z,0.4
2022-11-03T12:18:10.089Z,0.4
2022-11-03T12:19:10.098Z,0.4
2022-11-03T12:20:10.130Z,0.4
2022-11-03T12:21:01.098Z,0.4
2022-11-03T12:22:00.810Z,0.4
2022-11-03T12:23:00.216Z,0.4
2022-11-03T12:24:00.174Z,0.4
2022-11-03T12:25:01.075Z,0.4
2022-11-03T12:26:00.249Z,0.4
2022-11-03T12:27:00.830Z,0.4
2022-11-03T12:28:00.296Z,0.4
2022-11-03T12:29:00.180Z,0.4
2022-11-03T12:30:01.076Z,0.4
2022-11-03T12:32:00.168Z,0.4
2022-11-03T12:33:00.154Z,0.4
2022-11-03T12:34:00.150Z,0.4
2022-11-03T12:35:00.853Z,0.4
2022-11-03T12:36:00.239Z,0.4
2022-11-03T12:37:00.169Z,0.4
2022-11-03T12:38:00.159Z,0.4
2022-11-03T12:39:00.177Z,0.4
2022-11-03T12:40:00.364Z,0.4
2022-11-03T12:41:00.335Z,0.4
2022-11-03T12:42:00.163Z,0.4
2022-11-03T12:43:00.148Z,0.4
2022-11-03T12:44:00.314Z,0.4
2022-11-03T12:45:00.205Z,0.4
2022-11-03T12:46:00.155Z,0.4
2022-11-03T12:47:00.281Z,0.4
2022-11-03T12:48:00.159Z,0.4
2022-11-03T12:49:00.155Z,0.4
2022-11-03T12:50:00.171Z,0.4
2022-11-03T12:51:00.158Z,0.4
2022-11-03T12:52:04.014Z,0.4
2022-11-03T12:53:00.154Z,0.4
2022-11-03T12:54:00.154Z,0.4
2022-11-03T12:55:00.153Z,0.4
2022-11-03T12:56:00.149Z,0.4
2022-11-03T12:57:00.222Z,0.4
2022-11-03T12:58:00.177Z,0.4
2022-11-03T12:59:00.153Z,0.4
2022-11-03T13:00:00.163Z,0.4
2022-11-03T13:01:01.905Z,0.4
2022-11-03T13:02:00.377Z,0.4
2022-11-03T13:03:00.160Z,0.4
2022-11-03T13:04:00.174Z,0.4
2022-11-03T13:05:00.167Z,0.4
2022-11-03T13:06:00.875Z,0.4
2022-11-03T13:07:00.165Z,0.4
2022-11-03T13:08:00.158Z,0.4
2022-11-03T13:09:00.168Z,0.4
2022-11-03T13:10:00.150Z,0.4
2022-11-03T13:11:00.301Z,0.4
2022-11-03T13:12:00.154Z,0.4
2022-11-03T13:13:00.145Z,0.4
2022-11-03T13:14:00.160Z,0.4
2022-11-03T13:15:01.741Z,0.4
2022-11-03T13:16:00.154Z,0.4
2022-11-03T13:17:00.153Z,0.4
2022-11-03T13:18:13.242Z,0.4
2022-11-03T13:19:00.737Z,0.4
2022-11-03T13:20:00.244Z,0.4
2022-11-03T13:21:00.154Z,1.0
2022-11-03T13:22:00.152Z,1.0
2022-11-03T13:23:00.760Z,1.0
2022-11-03T13:24:00.173Z,1.0
2022-11-03T13:25:00.159Z,1.0
2022-11-03T13:26:00.277Z,1.0
2022-11-03T13:27:00.173Z,1.0
2022-11-03T13:28:00.153Z,1.0
2022-11-03T13:29:00.160Z,1.0
2022-11-03T13:30:00.174Z,1.0
2022-11-03T13:31:00.158Z,1.0
2022-11-03T13:32:00.273Z,1.0
2022-11-03T13:33:00.154Z,1.0
2022-11-03T13:34:00.156Z,1.0
2022-11-03T13:35:00.168Z,1.0
2022-11-03T13:36:00.229Z,1.0
2022-11-03T13:37:00.377Z,1.0
2022-11-03T13:38:00.156Z,1.0
2022-11-03T13:39:00.152Z,1.0
2022-11-03T13:40:00.177Z,1.0
2022-11-03T13:41:05.468Z,0.4
2022-11-03T13:42:00.189Z,0.4
2022-11-03T13:43:00.184Z,0.4
2022-11-03T13:44:00.154Z,0.4
2022-11-03T13:45:00.530Z,0.4
2022-11-03T13:46:00.158Z,0.4
2022-11-03T13:47:00.168Z,0.4
2022-11-03T13:50:13.500Z,0.4
2022-11-03T13:51:00.494Z,0.4
2022-11-03T13:52:00.332Z,0.4
2022-11-03T13:56:05.304Z,0.4
2022-11-03T13:59:27.022Z,0.4
2022-11-03T14:00:03.580Z,0.4
2022-11-03T14:01:00.211Z,0.4